createdAt,value
2023-04-06T00:04:30.537Z,67.54
2023-04-06T00:09:35.806Z,67.27
2023-04-06T00:14:39.413Z,67.93
2023-04-06T00:19:43.029Z,67.58
2023-04-06T00:24:47.868Z,67.36
2023-04-06T00:29:51.413Z,67.86
2023-04-06T00:34:54.890Z,68.34
2023-04-06T00:39:59.922Z,68.03
2023-04-06T00:45:04.161Z,67.73
2023-04-06T00:50:09.132Z,68.09
2023-04-06T00:55:14.094Z,68.17
2023-04-06T01:00:18.617Z,68.31
2023-04-06T01:05:22.318Z,68.20
2023-04-06T01:10:28.054Z,68.31
2023-04-06T01:15:32.426Z,68.03
2023-04-06T01:20:36.020Z,68.50
2023-04-06T01:25:40.907Z,68.54
2023-04-06T01:30:44.090Z,67.81
2023-04-06T01:35:47.617Z,68.64
2023-04-06T01:40:52.566Z,68.57
2023-04-06T01:45:56.621Z,68.05
2023-04-06T01:51:00.335Z,68.50
2023-04-06T01:56:05.640Z,67.80
2023-04-06T02:01:09.198Z,67.74
2023-04-06T02:06:12.792Z,68.01
2023-04-06T02:11:17.862Z,68.05
2023-04-06T02:16:21.433Z,68.32
2023-04-06T02:21:25.251Z,68.07
2023-04-06T02:26:30.173Z,67.95
2023-04-06T02:31:33.419Z,67.24
2023-04-06T02:36:36.903Z,67.90
2023-04-06T02:41:42.289Z,67.79
2023-04-06T02:46:45.782Z,67.50
2023-04-06T02:51:49.400Z,67.27
2023-04-06T02:56:54.725Z,67.49
2023-04-06T03:01:58.294Z,68.00
2023-04-06T03:07:01.764Z,67.45
2023-04-06T03:12:09.276Z,67.21
2023-04-06T03:17:13.541Z,67.59
2023-04-06T03:22:17.249Z,67.09
2023-04-06T03:27:22.137Z,66.35
2023-04-06T03:32:25.359Z,66.42
2023-04-06T03:37:28.918Z,65.85
2023-04-06T03:42:34.045Z,65.61
2023-04-06T03:47:37.589Z,65.09
2023-04-06T03:52:41.154Z,65.45
2023-04-06T03:57:46.053Z,65.26
2023-04-06T04:02:49.274Z,63.76
2023-04-06T04:07:52.782Z,63.96
2023-04-06T04:12:57.661Z,63.70
2023-04-06T04:18:00.841Z,53.81
2023-04-06T04:23:04.466Z,43.81
2023-04-06T04:28:09.442Z,39.02
2023-04-06T04:33:12.987Z,42.89
2023-04-06T04:38:16.647Z,49.42
2023-04-06T04:43:21.594Z,51.71
2023-04-06T04:48:24.817Z,53.34
2023-04-06T04:53:28.292Z,53.71
2023-04-06T04:58:33.174Z,54.28
2023-04-06T05:03:36.914Z,53.17
2023-04-06T05:08:40.723Z,49.31
2023-04-06T05:13:45.842Z,36.88
2023-04-06T05:18:50.315Z,31.36
2023-04-06T05:23:55.083Z,28.35
2023-04-06T05:29:00.108Z,25.17
2023-04-06T05:34:03.726Z,23.70
2023-04-06T05:39:07.460Z,22.70
2023-04-06T05:44:12.865Z,20.95
2023-04-06T05:49:16.514Z,20.18
2023-04-06T05:54:20.012Z,19.13
2023-04-06T05:59:25.489Z,17.86
2023-04-06T06:04:29.051Z,17.90
2023-04-06T06:09:32.536Z,16.94
2023-04-06T06:14:37.488Z,16.75
2023-04-06T06:19:41.010Z,16.22
2023-04-06T06:24:44.550Z,15.47
2023-04-06T06:29:49.445Z,14.22
2023-04-06T06:34:52.960Z,13.99
2023-04-06T06:39:56.445Z,13.84
2023-04-06T06:45:01.829Z,13.33
2023-04-06T06:50:08.634Z,12.71
2023-04-06T06:55:13.233Z,13.03
2023-04-06T07:00:18.621Z,12.76
2023-04-06T07:05:31.155Z,12.82
2023-04-06T07:10:34.695Z,12.31
2023-04-06T07:15:38.531Z,12.67
2023-04-06T07:20:43.464Z,12.38
2023-04-06T07:25:47.437Z,12.83
2023-04-06T07:30:50.932Z,12.76
2023-04-06T07:35:56.128Z,12.84
2023-04-06T07:40:59.748Z,13.46
2023-04-06T07:46:03.370Z,12.57
2023-04-06T07:51:11.816Z,13.00
2023-04-06T07:56:16.538Z,13.51
2023-04-06T08:01:20.215Z,13.22
2023-04-06T08:06:25.237Z,13.45
2023-04-06T08:11:28.982Z,13.54
2023-04-06T08:16:32.482Z,13.79
2023-04-06T08:21:37.691Z,14.39
2023-04-06T08:26:41.342Z,14.96
2023-04-06T08:31:44.915Z,15.66
2023-04-06T08:36:49.898Z,16.77
2023-04-06T08:41:54.258Z,18.74
2023-04-06T08:46:57.933Z,22.62
2023-04-06T08:52:03.344Z,24.40
2023-04-06T08:57:07.703Z,25.26
2023-04-06T09:02:18.390Z,27.71
2023-04-06T09:07:23.684Z,28.21
2023-04-06T09:12:28.798Z,29.48
2023-04-06T09:17:35.062Z,29.70
2023-04-06T09:22:41.335Z,29.73
2023-04-06T09:27:45.657Z,29.67
2023-04-06T09:32:51.040Z,29.48
2023-04-06T09:37:56.550Z,30.39
2023-04-06T09:43:00.566Z,30.05
2023-04-06T09:48:05.687Z,30.18
2023-04-06T09:53:10.997Z,30.60
2023-04-06T09:58:20.386Z,30.73
2023-04-06T10:03:38.656Z,30.18
2023-04-06T10:08:45.595Z,30.26
2023-04-06T10:13:51.057Z,30.59
2023-04-06T10:19:00.498Z,30.71
2023-04-06T10:24:13.273Z,31.16
2023-04-06T10:29:16.985Z,30.19
2023-04-06T10:34:20.650Z,30.31
2023-04-06T10:39:29.178Z,30.89
2023-04-06T10:44:32.749Z,31.20
2023-04-06T10:49:36.321Z,31.16
2023-04-06T10:54:45.247Z,31.57
2023-04-06T10:59:48.897Z,31.72
2023-04-06T11:04:59.388Z,30.83
2023-04-06T11:10:15.487Z,30.67
2023-04-06T11:15:21.426Z,30.94
2023-04-06T11:20:25.141Z,31.48
2023-04-06T11:25:32.389Z,31.54
2023-04-06T11:30:35.944Z,30.79
2023-04-06T11:35:40.005Z,31.04
2023-04-06T11:40:45.311Z,31.05
2023-04-06T11:45:49.170Z,31.00
2023-04-06T11:50:59.024Z,30.29
2023-04-06T11:56:07.325Z,30.60
2023-04-06T12:01:13.136Z,31.33
2023-04-06T12:06:19.040Z,30.96
2023-04-06T12:11:24.373Z,31.11
2023-04-06T12:16:27.878Z,31.47
2023-04-06T12:21:32.148Z,31.63
2023-04-06T12:26:38.266Z,31.94
2023-04-06T12:31:44.323Z,31.40
2023-04-06T12:36:47.964Z,31.21
2023-04-06T12:41:53.233Z,30.28
2023-04-06T12:46:57.479Z,30.99
2023-04-06T12:52:01.063Z,31.61
2023-04-06T12:57:06.148Z,31.87
2023-04-06T13:02:09.716Z,31.95
2023-04-06T13:07:13.464Z,32.28
2023-04-06T13:12:18.643Z,31.66
2023-04-06T13:17:22.264Z,31.38
2023-04-06T13:22:25.866Z,31.76
2023-04-06T13:27:34.894Z,30.54
2023-04-06T13:32:38.767Z,30.60
2023-04-06T13:37:42.476Z,30.67
2023-04-06T13:42:47.536Z,30.47
2023-04-06T13:47:51.033Z,30.19
2023-04-06T13:52:54.736Z,30.26
2023-04-06T13:57:59.689Z,29.55
2023-04-06T14:03:03.342Z,29.27
2023-04-06T14:08:07.064Z,29.24
2023-04-06T14:13:12.932Z,28.97
2023-04-06T14:18:16.488Z,28.92
2023-04-06T14:23:19.931Z,28.87
2023-04-06T14:28:24.880Z,28.63
2023-04-06T14:33:28.599Z,28.73
2023-04-06T14:38:32.327Z,29.11
2023-04-06T14:43:37.255Z,29.85
2023-04-06T14:48:40.885Z,30.13
2023-04-06T14:53:44.624Z,30.42
2023-04-06T14:58:49.619Z,30.10
2023-04-06T15:03:53.238Z,30.42
2023-04-06T15:08:57.101Z,30.52
2023-04-06T15:14:03.157Z,30.05
2023-04-06T15:19:06.684Z,29.79
2023-04-06T15:24:10.751Z,30.04
2023-04-06T15:29:15.613Z,30.29
2023-04-06T15:34:19.285Z,30.41
2023-04-06T15:39:22.725Z,31.09
2023-04-06T15:44:27.655Z,30.75
2023-04-06T15:49:31.470Z,31.24
2023-04-06T15:54:36.699Z,31.08
2023-04-06T15:59:41.643Z,31.37
2023-04-06T16:04:45.273Z,31.32
2023-04-06T16:09:48.712Z,31.39
2023-04-06T16:14:53.671Z,31.57
2023-04-06T16:19:57.300Z,31.97
2023-04-06T16:25:00.905Z,32.07
2023-04-06T16:30:06.948Z,32.48
2023-04-06T16:35:10.953Z,32.66
2023-04-06T16:40:15.204Z,32.75
2023-04-06T16:45:20.313Z,33.21
2023-04-06T16:50:23.792Z,33.39
2023-04-06T16:55:27.364Z,33.70
2023-04-06T17:00:32.215Z,34.39
2023-04-06T17:05:36.078Z,35.17
2023-04-06T17:10:46.362Z,35.01
2023-04-06T17:16:03.823Z,34.79
2023-04-06T17:21:09.293Z,35.18
2023-04-06T17:26:12.749Z,35.28
2023-04-06T17:31:17.770Z,35.00
2023-04-06T17:36:21.964Z,34.62
2023-04-06T17:41:26.727Z,34.65
2023-04-06T17:46:31.634Z,35.00
2023-04-06T17:51:35.105Z,34.95
2023-04-06T17:56:38.639Z,34.91
2023-04-06T18:01:43.582Z,35.10
2023-04-06T18:06:47.346Z,35.61
2023-04-06T18:11:50.973Z,35.15
2023-04-06T18:16:55.813Z,34.52
2023-04-06T18:21:58.971Z,34.90
2023-04-06T18:27:02.730Z,35.14
2023-04-06T18:32:08.180Z,35.62
2023-04-06T18:37:11.658Z,35.41
2023-04-06T18:42:15.161Z,36.03
2023-04-06T18:47:20.172Z,35.47
2023-04-06T18:52:24.445Z,35.85
2023-04-06T18:57:28.038Z,36.02
2023-04-06T19:02:33.083Z,36.09
2023-04-06T19:07:37.697Z,35.43
2023-04-06T19:12:41.461Z,35.90
2023-04-06T19:17:47.764Z,36.18
2023-04-06T19:22:51.347Z,35.84
2023-04-06T19:27:54.932Z,36.37
2023-04-06T19:32:59.954Z,36.59
2023-04-06T19:38:03.485Z,36.38
2023-04-06T19:43:06.932Z,36.54
2023-04-06T19:48:11.764Z,36.87
2023-04-06T19:53:14.992Z,36.70
2023-04-06T19:58:18.711Z,36.66
2023-04-06T20:03:23.730Z,36.93
2023-04-06T20:08:27.268Z,37.60
2023-04-06T20:13:31.459Z,37.66
2023-04-06T20:18:37.220Z,38.04
2023-04-06T20:23:40.696Z,37.84
2023-04-06T20:28:44.459Z,38.38
2023-04-06T20:33:49.410Z,38.13
2023-04-06T20:38:52.628Z,38.05
2023-04-06T20:43:56.066Z,38.45
2023-04-06T20:49:01.015Z,38.73
2023-04-06T20:54:04.512Z,39.00
2023-04-06T20:59:07.975Z,38.87
2023-04-06T21:04:12.978Z,39.14
2023-04-06T21:09:16.978Z,39.10
2023-04-06T21:14:21.280Z,39.80
2023-04-06T21:19:27.713Z,39.50
2023-04-06T21:24:31.173Z,39.95
2023-04-06T21:29:34.650Z,39.66
2023-04-06T21:34:39.560Z,40.06
2023-04-06T21:39:43.241Z,40.35
2023-04-06T21:44:46.821Z,40.66
2023-04-06T21:49:51.852Z,40.80
2023-04-06T21:54:55.075Z,40.83
2023-04-06T21:59:58.565Z,41.00
2023-04-06T22:05:03.633Z,41.73
2023-04-06T22:10:07.957Z,41.75
2023-04-06T22:15:13.239Z,41.32
2023-04-06T22:20:18.245Z,41.78
2023-04-06T22:25:21.429Z,41.12
2023-04-06T22:30:25.111Z,41.75
2023-04-06T22:35:30.152Z,41.87
2023-04-06T22:40:33.644Z,42.04
2023-04-06T22:45:37.154Z,42.28
2023-04-06T22:50:42.087Z,42.24
2023-04-06T22:55:45.834Z,42.87
2023-04-06T23:00:49.216Z,43.22
2023-04-06T23:05:54.098Z,43.54
2023-04-06T23:10:57.289Z,44.66
2023-04-06T23:16:00.788Z,44.30
2023-04-06T23:21:07.908Z,44.03
2023-04-06T23:26:11.598Z,44.26
2023-04-06T23:31:15.106Z,43.79
2023-04-06T23:36:19.960Z,44.10
2023-04-06T23:41:23.323Z,43.78
2023-04-06T23:46:26.866Z,44.13
2023-04-06T23:51:31.954Z,44.45
2023-04-06T23:56:35.656Z,44.97
